Terminal Aerodrome Forecast
Issued by NWS

Home | Current Version | Previous Version | Text Only | Print | Product List | Glossary On
Versions: 1 2 3 4 5 6 7 8 9 10 11 12 13 14 15 16 17 18 19 20 21 22 23 24 25 26 27 28 29 30 31
000
FTUS44 KTSA 251600 AAA
TAFBVO
TAF AMD
KBVO 251600Z 2516/2612 16012KT P6SM SCT015 OVC035
     FM251800 18016G24KT P6SM OVC035
      TEMPO 2520/2524 3SM TSRA BKN025CB
     FM260000 18013KT P6SM OVC025
     FM260600 17002KT 4SM BR OVC025
     FM260900 20002KT 2SM BR OVC007=

USA.gov is the U.S. government's official web portal to all federal, state and local government web resources and services.